Time;durP1;ratioP1;P1;durP2;ratioP2;P2;SDS_P1;SDS_P2;PMS_P1;PMS_P2;Temp;Humidity;BMP_temperature;BMP_pressure;BME280_temperature;BME280_humidity;BME280_pressure;Samples;Min_cycle;Max_cycle;Signal;HPM_P1;HPM_P2
2023/03/23 00:00:48;;;;;;;2.75;2.22;;;;;;;13.18;100.00;100158.41;5183857;28;20464;-75
2023/03/23 00:03:21;;;;;;;5.25;2.75;;;;;;;13.14;100.00;100173.72;5185337;28;20026;-76
2023/03/23 00:05:52;;;;;;;5.18;2.30;;;;;;;13.09;100.00;100156.75;5178551;28;20089;-76
2023/03/23 00:08:23;;;;;;;4.43;2.78;;;;;;;13.07;100.00;100142.97;5185192;28;20026;-75
2023/03/23 00:10:58;;;;;;;5.10;2.60;;;;;;;13.17;100.00;100148.06;5184006;28;20022;-76
2023/03/23 00:13:29;;;;;;;4.10;2.38;;;;;;;13.22;100.00;100149.22;5183038;28;20163;-76
2023/03/23 00:16:01;;;;;;;4.88;2.78;;;;;;;13.24;100.00;100164.88;5183912;28;20043;-76
2023/03/23 00:18:35;;;;;;;5.78;3.08;;;;;;;13.27;100.00;100175.88;5185090;28;20030;-76
2023/03/23 00:21:07;;;;;;;4.32;2.50;;;;;;;13.32;100.00;100157.78;5182687;28;20018;-76
2023/03/23 00:23:39;;;;;;;5.43;3.00;;;;;;;13.28;100.00;100153.03;5183105;28;20052;-80
2023/03/23 00:26:12;;;;;;;3.47;2.22;;;;;;;13.22;100.00;100146.59;5181984;28;20030;-75
2023/03/23 00:28:46;;;;;;;3.58;2.38;;;;;;;13.30;100.00;100169.47;5183650;28;20042;-76
2023/03/23 00:31:17;;;;;;;5.25;2.42;;;;;;;13.31;100.00;100165.84;5180388;28;20038;-76
2023/03/23 00:33:48;;;;;;;4.20;2.53;;;;;;;13.30;100.00;100161.59;5183935;28;20027;-76
2023/03/23 00:36:22;;;;;;;3.97;2.60;;;;;;;13.36;100.00;100169.63;5185706;28;20104;-75
2023/03/23 00:38:59;;;;;;;3.10;2.47;;;;;;;13.37;100.00;100166.03;5184009;28;20046;-75
2023/03/23 00:41:30;;;;;;;5.45;2.75;;;;;;;13.23;100.00;100164.03;5183088;28;20026;-76
2023/03/23 00:44:02;;;;;;;3.97;2.60;;;;;;;13.26;100.00;100163.72;5183942;28;20487;-76
2023/03/23 00:46:33;;;;;;;4.32;2.65;;;;;;;13.29;100.00;100152.84;5181294;28;20031;-77
2023/03/23 00:49:04;;;;;;;4.28;2.85;;;;;;;13.35;100.00;100149.56;5185674;28;20019;-76
2023/03/23 00:51:36;;;;;;;4.05;2.88;;;;;;;13.35;100.00;100146.94;5184222;28;20542;-76
2023/03/23 00:54:08;;;;;;;4.55;2.80;;;;;;;13.38;100.00;100154.50;5180695;28;20392;-76
2023/03/23 00:56:39;;;;;;;4.88;3.10;;;;;;;13.32;100.00;100151.69;5183351;28;20039;-76
2023/03/23 00:59:11;;;;;;;5.43;2.95;;;;;;;13.31;100.00;100156.16;5180976;28;20042;-76
2023/03/23 01:01:42;;;;;;;4.05;2.65;;;;;;;13.28;100.00;100135.44;5184881;28;20022;-76
2023/03/23 01:04:14;;;;;;;3.67;2.80;;;;;;;13.34;100.00;100115.53;5180640;28;20092;-76
2023/03/23 01:06:50;;;;;;;4.57;2.50;;;;;;;13.33;100.00;100121.78;5183592;28;20113;-76
2023/03/23 01:09:21;;;;;;;3.30;2.80;;;;;;;13.24;100.00;100122.78;5185621;28;20042;-76
2023/03/23 01:11:55;;;;;;;5.38;3.40;;;;;;;13.18;100.00;100115.50;5179193;28;20023;-76
2023/03/23 01:14:26;;;;;;;4.35;2.80;;;;;;;13.23;100.00;100103.53;5184007;28;20415;-76
2023/03/23 01:16:57;;;;;;;4.80;2.47;;;;;;;13.30;100.00;100087.94;5179580;28;20064;-76
2023/03/23 01:19:29;;;;;;;5.90;3.05;;;;;;;13.20;100.00;100093.31;5184169;28;20089;-75
2023/03/23 01:22:00;;;;;;;4.63;2.97;;;;;;;13.19;100.00;100094.31;5182930;28;20090;-76
2023/03/23 01:24:32;;;;;;;3.83;2.88;;;;;;;13.23;100.00;100103.53;5183845;28;20113;-75
2023/03/23 01:27:06;;;;;;;4.35;3.00;;;;;;;13.23;100.00;100098.28;5182948;28;20051;-75
2023/03/23 01:29:37;;;;;;;4.57;3.13;;;;;;;13.28;100.00;100095.16;5183010;28;20022;-75
2023/03/23 01:32:09;;;;;;;5.82;2.90;;;;;;;13.28;100.00;100095.97;5182064;28;20034;-75
2023/03/23 01:34:40;;;;;;;4.80;3.03;;;;;;;13.31;100.00;100093.00;5181590;28;20450;-76
2023/03/23 01:37:11;;;;;;;6.10;3.30;;;;;;;13.42;100.00;100088.41;5184811;28;20023;-76
2023/03/23 01:39:43;;;;;;;5.20;2.65;;;;;;;13.37;100.00;100086.25;5180354;28;20085;-76
2023/03/23 01:42:14;;;;;;;4.18;2.72;;;;;;;13.44;100.00;100095.13;5186208;28;20032;-76
2023/03/23 01:44:45;;;;;;;4.50;2.85;;;;;;;13.47;100.00;100096.59;5183194;28;20038;-76
2023/03/23 01:47:23;;;;;;;3.97;2.97;;;;;;;13.50;100.00;100102.34;5179509;28;20034;-76
2023/03/23 01:49:54;;;;;;;4.22;2.90;;;;;;;13.44;100.00;100103.00;5180991;28;20294;-75
2023/03/23 01:52:29;;;;;;;4.20;3.00;;;;;;;13.48;100.00;100106.13;5183372;28;20034;-75
2023/03/23 01:55:00;;;;;;;3.58;2.50;;;;;;;13.36;100.00;100092.50;5183467;28;20023;-75
2023/03/23 01:57:33;;;;;;;5.68;3.10;;;;;;;13.31;100.00;100087.75;5180834;28;20030;-75
2023/03/23 02:00:10;;;;;;;3.23;2.53;;;;;;;13.41;100.00;100079.69;5184785;28;20030;-75
2023/03/23 02:02:46;;;;;;;3.85;2.83;;;;;;;13.36;100.00;100074.91;5183595;28;20030;-75
2023/03/23 02:05:31;;;;;;;4.28;2.65;;;;;;;13.48;100.00;100077.19;5181715;28;20029;-75
2023/03/23 02:08:06;;;;;;;5.03;2.90;;;;;;;13.38;100.00;100061.59;5182684;28;20053;-75
2023/03/23 02:10:37;;;;;;;4.88;2.80;;;;;;;13.42;100.00;100067.34;5184682;28;20026;-75
2023/03/23 02:13:10;;;;;;;5.82;3.15;;;;;;;13.43;100.00;100066.34;5181723;28;20041;-74
2023/03/23 02:16:11;;;;;;;5.15;2.78;;;;;;;13.49;100.00;100045.47;5183773;28;20076;-75
2023/03/23 02:18:53;;;;;;;4.07;2.85;;;;;;;13.57;100.00;100057.78;5180182;28;20074;-75
2023/03/23 02:21:33;;;;;;;3.45;2.70;;;;;;;13.46;100.00;100052.88;5180425;28;20037;-74
2023/03/23 02:24:39;;;;;;;4.20;3.03;;;;;;;13.61;100.00;100052.00;5180872;28;20030;-75
2023/03/23 02:27:16;;;;;;;6.30;2.67;;;;;;;13.42;100.00;100060.28;5179389;28;20038;-75
2023/03/23 02:30:06;;;;;;;4.22;2.88;;;;;;;13.67;100.00;100062.84;5183769;28;20476;-75
2023/03/23 02:32:40;;;;;;;5.05;2.80;;;;;;;13.47;100.00;100054.50;5180971;28;20206;-75
2023/03/23 02:35:27;;;;;;;5.25;2.35;;;;;;;13.15;100.00;99990.44;5177427;28;20057;-75
2023/03/23 02:38:13;;;;;;;4.93;2.95;;;;;;;13.45;100.00;100041.53;5179640;28;20459;-76
2023/03/23 02:40:48;;;;;;;3.13;2.50;;;;;;;13.49;100.00;100044.66;5180418;28;20026;-76
2023/03/23 02:43:24;;;;;;;7.57;2.63;;;;;;;13.49;100.00;100045.47;5180941;28;20026;-76
2023/03/23 02:45:57;;;;;;;4.72;2.75;;;;;;;13.43;100.00;100043.50;5180730;28;20105;-76
2023/03/23 02:48:30;;;;;;;5.68;2.50;;;;;;;13.47;100.00;100047.44;5176881;28;20042;-75
2023/03/23 02:51:04;;;;;;;4.55;2.92;;;;;;;13.55;100.00;100046.59;5183245;28;20033;-75
2023/03/23 02:53:40;;;;;;;3.60;2.78;;;;;;;13.55;100.00;100044.78;5181552;28;20038;-76
2023/03/23 02:56:13;;;;;;;4.20;2.70;;;;;;;13.50;100.00;100052.34;5180429;28;20027;-75
2023/03/23 02:58:45;;;;;;;4.88;2.63;;;;;;;13.57;100.00;100049.88;5180721;28;20031;-75
2023/03/23 03:01:36;;;;;;;6.05;2.45;;;;;;;13.76;100.00;100054.75;5178961;28;20029;-76
2023/03/23 03:04:13;;;;;;;3.92;2.58;;;;;;;13.63;100.00;100054.44;5182189;28;20026;-77
2023/03/23 03:07:02;;;;;;;3.28;2.55;;;;;;;13.87;100.00;100041.22;5178642;28;20034;-76
2023/03/23 03:09:47;;;;;;;4.68;2.42;;;;;;;13.73;100.00;100041.91;5181937;28;20476;-76
2023/03/23 03:12:34;;;;;;;3.67;2.75;;;;;;;13.85;100.00;100047.63;5180565;28;20034;-76
2023/03/23 03:15:19;;;;;;;5.53;2.78;;;;;;;13.65;100.00;100057.75;5179177;28;20038;-75
2023/03/23 03:18:21;;;;;;;4.15;2.72;;;;;;;13.97;100.00;100045.44;5180697;28;20392;-76
2023/03/23 03:21:03;;;;;;;4.32;3.00;;;;;;;13.85;100.00;100053.72;5178744;28;20086;-76
2023/03/23 03:23:37;;;;;;;3.38;2.50;;;;;;;13.73;100.00;100055.09;5181780;28;21185;-76
2023/03/23 03:26:12;;;;;;;3.85;2.90;;;;;;;13.75;100.00;100058.38;5183648;28;20041;-76
2023/03/23 03:28:47;;;;;;;5.30;3.08;;;;;;;13.69;100.00;100053.78;5181883;28;20039;-76
2023/03/23 03:31:22;;;;;;;5.82;3.13;;;;;;;13.74;100.00;100051.44;5184828;28;20058;-76
2023/03/23 03:33:53;;;;;;;3.13;2.42;;;;;;;13.74;100.00;100050.63;5183225;28;20027;-76
2023/03/23 03:36:28;;;;;;;3.83;2.60;;;;;;;13.73;100.00;100056.91;5184617;28;20041;-75
2023/03/23 03:39:03;;;;;;;4.38;2.60;;;;;;;13.69;100.00;100045.06;5184129;28;20022;-76
2023/03/23 03:41:35;;;;;;;4.88;2.70;;;;;;;13.66;100.00;100051.50;5183919;28;20023;-76
2023/03/23 03:44:07;;;;;;;3.65;2.13;;;;;;;13.67;100.00;100058.38;5185849;28;20117;-76
2023/03/23 03:46:39;;;;;;;5.18;2.60;;;;;;;13.69;100.00;100053.78;5185364;28;20038;-76
2023/03/23 03:49:12;;;;;;;3.63;2.05;;;;;;;13.69;100.00;100063.50;5182565;28;20052;-76
2023/03/23 03:51:43;;;;;;;3.83;2.30;;;;;;;13.74;100.00;100061.97;5184482;28;20018;-76
2023/03/23 03:54:15;;;;;;;5.60;2.83;;;;;;;13.74;100.00;100042.75;5190746;28;20037;-75
2023/03/23 03:56:47;;;;;;;6.47;2.05;;;;;;;13.68;100.00;100052.16;5186158;28;20113;-76
2023/03/23 03:59:18;;;;;;;3.00;2.05;;;;;;;13.69;100.00;100069.56;5185381;28;20092;-76
2023/03/23 04:01:53;;;;;;;4.88;2.45;;;;;;;13.71;100.00;100061.50;5183218;28;20387;-76
2023/03/23 04:04:25;;;;;;;5.53;2.20;;;;;;;13.74;100.00;100071.69;5182505;28;20030;-76
2023/03/23 04:06:57;;;;;;;4.05;1.80;;;;;;;13.73;100.00;100067.44;5183497;28;20027;-77
2023/03/23 04:09:31;;;;;;;4.65;2.13;;;;;;;13.71;100.00;100064.13;5181394;28;20107;-75
2023/03/23 04:12:02;;;;;;;6.03;2.10;;;;;;;13.63;100.00;100070.25;5185002;28;20404;-76
2023/03/23 04:14:34;;;;;;;5.68;2.50;;;;;;;13.64;100.00;100069.28;5185990;28;20062;-76
2023/03/23 04:17:06;;;;;;;6.25;2.17;;;;;;;13.62;100.00;100079.13;5183158;28;20038;-75
2023/03/23 04:19:38;;;;;;;6.82;2.55;;;;;;;13.73;100.00;100083.22;5185750;28;20113;-75
2023/03/23 04:22:09;;;;;;;4.97;1.80;;;;;;;13.71;100.00;100074.66;5180535;28;20105;-75
2023/03/23 04:24:42;;;;;;;8.30;2.45;;;;;;;13.64;100.00;100085.06;5182804;28;20026;-75
2023/03/23 04:27:15;;;;;;;3.78;1.73;;;;;;;13.65;100.00;100070.91;5181337;28;20138;-75
2023/03/23 04:29:48;;;;;;;7.78;2.03;;;;;;;13.69;100.00;100081.94;5185921;28;20030;-75
2023/03/23 04:32:20;;;;;;;7.55;2.03;;;;;;;13.72;100.00;100092.13;5186649;28;20069;-75
2023/03/23 04:34:52;;;;;;;5.40;1.92;;;;;;;13.70;100.00;100086.19;5179351;28;20037;-76
2023/03/23 04:37:28;;;;;;;4.50;1.70;;;;;;;13.64;100.00;100087.69;5187333;28;20480;-76
2023/03/23 04:40:00;;;;;;;5.47;1.95;;;;;;;13.71;100.00;100090.47;5184314;28;20081;-75
2023/03/23 04:42:31;;;;;;;5.75;2.22;;;;;;;13.76;100.00;100106.59;5187446;28;20497;-76
2023/03/23 04:45:05;;;;;;;6.70;1.95;;;;;;;13.78;100.00;100100.16;5182731;28;20063;-76
2023/03/23 04:47:40;;;;;;;6.47;2.17;;;;;;;13.74;100.00;100090.13;5184110;28;20033;-76
2023/03/23 04:50:12;;;;;;;6.88;1.70;;;;;;;13.77;100.00;100098.50;5181946;28;20038;-76
2023/03/23 04:52:44;;;;;;;6.35;1.90;;;;;;;13.78;100.00;100096.69;5179372;28;20129;-76
2023/03/23 04:55:17;;;;;;;6.63;2.40;;;;;;;13.70;100.00;100094.91;5181622;28;20062;-76
2023/03/23 04:57:48;;;;;;;6.93;1.67;;;;;;;13.77;100.00;100092.44;5188073;28;20042;-76
2023/03/23 05:00:20;;;;;;;8.15;2.35;;;;;;;13.75;100.00;100095.25;5184587;28;20416;-76
2023/03/23 05:02:51;;;;;;;7.50;2.15;;;;;;;13.68;100.00;100102.16;5182931;28;20117;-77
2023/03/23 05:05:24;;;;;;;6.97;2.00;;;;;;;13.67;100.00;100087.34;5186306;28;20023;-75
2023/03/23 05:07:56;;;;;;;3.88;1.65;;;;;;;13.70;100.00;100099.34;5182478;28;20790;-76
2023/03/23 05:10:27;;;;;;;6.63;2.10;;;;;;;13.73;100.00;100097.22;5184476;28;20034;-75
2023/03/23 05:12:59;;;;;;;4.10;1.60;;;;;;;13.74;100.00;100109.38;5183594;28;20038;-76
2023/03/23 05:15:30;;;;;;;4.80;1.90;;;;;;;13.68;100.00;100104.81;5187295;28;20559;-76
2023/03/23 05:18:02;;;;;;;6.47;1.98;;;;;;;13.66;100.00;100092.78;5184746;28;20499;-76
2023/03/23 05:20:33;;;;;;;7.65;2.22;;;;;;;13.70;100.00;100088.81;5181214;28;20447;-76
2023/03/23 05:23:05;;;;;;;6.50;1.60;;;;;;;13.71;100.00;100090.47;5182974;28;20027;-75
2023/03/23 05:25:39;;;;;;;8.38;1.60;;;;;;;13.60;100.00;100104.81;5179201;28;20030;-75
2023/03/23 05:28:11;;;;;;;5.80;1.75;;;;;;;13.65;100.00;100104.31;5182323;28;20034;-75
2023/03/23 05:30:44;;;;;;;6.50;2.30;;;;;;;13.61;100.00;100101.19;5184408;28;20440;-75
2023/03/23 05:33:15;;;;;;;9.20;2.50;;;;;;;13.57;100.00;100103.34;5178299;28;20097;-76
2023/03/23 05:35:47;;;;;;;7.00;2.00;;;;;;;13.57;100.00;100105.16;5181130;28;20479;-77
2023/03/23 05:38:19;;;;;;;6.13;2.22;;;;;;;13.58;100.00;100099.72;5177917;28;20054;-76
2023/03/23 05:40:52;;;;;;;4.57;1.63;;;;;;;13.54;100.00;100108.94;5181448;28;20015;-76
2023/03/23 05:43:23;;;;;;;7.63;2.22;;;;;;;13.47;100.00;100097.41;5182341;28;20034;-76
2023/03/23 05:45:54;;;;;;;9.00;2.08;;;;;;;13.38;100.00;100090.53;5181948;28;20026;-76
2023/03/23 05:48:26;;;;;;;6.07;2.00;;;;;;;13.45;100.00;100109.94;5184313;28;20034;-76
2023/03/23 05:50:57;;;;;;;5.97;2.13;;;;;;;13.42;100.00;100096.28;5180529;28;20058;-76
2023/03/23 05:53:30;;;;;;;8.00;1.83;;;;;;;13.44;100.00;100108.28;5180394;28;20034;-76
2023/03/23 05:56:03;;;;;;;7.45;2.42;;;;;;;13.38;100.00;100101.88;5181141;28;20030;-76
2023/03/23 05:58:34;;;;;;;6.03;2.33;;;;;;;13.33;100.00;100100.72;5182451;28;20033;-76
2023/03/23 06:01:06;;;;;;;6.72;2.00;;;;;;;13.34;100.00;100105.84;5179757;28;20400;-76
2023/03/23 06:03:38;;;;;;;5.13;1.70;;;;;;;13.36;100.00;100108.28;5179160;28;20045;-76
2023/03/23 06:06:11;;;;;;;5.55;1.80;;;;;;;13.46;100.00;100105.50;5178642;28;20480;-76
2023/03/23 06:08:42;;;;;;;6.90;1.58;;;;;;;13.51;100.00;100108.44;5179913;28;20035;-76
2023/03/23 06:11:14;;;;;;;6.00;1.98;;;;;;;13.44;100.00;100099.56;5178363;28;20042;-76
2023/03/23 06:13:45;;;;;;;8.18;2.53;;;;;;;13.47;100.00;100117.66;5179935;28;20022;-76
2023/03/23 06:16:16;;;;;;;8.52;2.80;;;;;;;13.45;100.00;100123.09;5181382;28;20037;-75
2023/03/23 06:18:49;;;;;;;8.23;2.25;;;;;;;13.51;100.00;100126.84;5181031;28;20434;-74
2023/03/23 06:21:21;;;;;;;7.38;2.15;;;;;;;13.52;100.00;100131.13;5181124;28;20058;-75
2023/03/23 06:23:53;;;;;;;8.20;2.27;;;;;;;13.54;100.00;100140.50;5178605;28;20026;-74
2023/03/23 06:26:34;;;;;;;7.50;2.40;;;;;;;13.58;100.00;100131.28;5145988;28;1062929;-75
2023/03/23 06:29:10;;;;;;;7.15;2.28;;;;;;;13.56;100.00;100151.72;5184848;28;20034;-75
2023/03/23 06:31:52;;;;;;;8.68;2.35;;;;;;;13.82;100.00;100163.81;5181093;28;20160;-74
2023/03/23 06:34:24;;;;;;;8.90;2.25;;;;;;;13.74;100.00;100156.75;5181748;28;20030;-75
2023/03/23 06:36:56;;;;;;;6.93;2.05;;;;;;;13.62;100.00;100166.00;5182609;28;20073;-75
2023/03/23 06:39:28;;;;;;;9.43;2.60;;;;;;;13.68;100.00;100167.97;5184892;28;20117;-75
2023/03/23 06:41:59;;;;;;;6.63;2.30;;;;;;;13.64;100.00;100177.19;5182664;28;20109;-74
2023/03/23 06:44:30;;;;;;;8.65;1.80;;;;;;;13.69;100.00;100172.25;5183260;28;20039;-75
2023/03/23 06:47:03;;;;;;;7.72;2.00;;;;;;;13.65;100.00;100172.75;5184436;28;20030;-74
2023/03/23 06:49:34;;;;;;;8.23;1.87;;;;;;;13.63;100.00;100175.53;5178422;28;20038;-75
2023/03/23 06:52:06;;;;;;;7.60;2.08;;;;;;;13.69;100.00;100180.13;5182529;28;20367;-74
2023/03/23 06:54:37;;;;;;;9.73;2.20;;;;;;;13.69;100.00;100184.59;5183668;28;20030;-74
2023/03/23 06:57:09;;;;;;;11.75;2.20;;;;;;;13.76;100.00;100194.28;5180837;28;20030;-76
2023/03/23 06:59:41;;;;;;;7.57;2.03;;;;;;;13.69;100.00;100200.38;5191749;28;20038;-76
2023/03/23 07:02:13;;;;;;;6.20;1.80;;;;;;;13.55;100.00;100199.22;5187100;28;20053;-76
2023/03/23 07:04:45;;;;;;;6.20;2.30;;;;;;;13.52;100.00;100191.66;5173693;28;20042;-76
2023/03/23 07:07:18;;;;;;;4.72;1.50;;;;;;;13.45;100.00;100191.50;5176342;28;20030;-76
2023/03/23 07:09:49;;;;;;;8.18;2.00;;;;;;;13.37;100.00;100194.97;5173941;28;20031;-75
2023/03/23 07:12:21;;;;;;;6.57;2.38;;;;;;;13.30;100.00;100206.31;5184714;28;20436;-75
2023/03/23 07:14:53;;;;;;;5.57;1.88;;;;;;;13.20;100.00;100214.31;5189317;28;20041;-75
2023/03/23 07:17:24;;;;;;;8.23;2.38;;;;;;;13.14;100.00;100218.44;5179598;28;20443;-75
2023/03/23 07:19:56;;;;;;;9.00;2.20;;;;;;;13.11;100.00;100231.06;5179522;28;20060;-75
2023/03/23 07:22:27;;;;;;;7.35;1.85;;;;;;;12.98;100.00;100234.16;5178026;28;20069;-76
2023/03/23 07:24:58;;;;;;;5.85;1.75;;;;;;;12.98;100.00;100238.59;5180118;28;20085;-75
2023/03/23 07:27:30;;;;;;;4.55;1.90;;;;;;;12.87;100.00;100245.78;5179581;28;20046;-76
2023/03/23 07:30:01;;;;;;;8.85;2.08;;;;;;;12.86;100.00;100251.22;5179715;28;20034;-76
2023/03/23 07:32:33;;;;;;;7.55;2.10;;;;;;;12.82;100.00;100258.59;5179899;28;20501;-75
2023/03/23 07:35:04;;;;;;;6.07;2.20;;;;;;;12.73;100.00;100267.44;5184942;28;20030;-75
2023/03/23 07:37:35;;;;;;;4.35;1.17;;;;;;;12.44;100.00;100235.44;5184562;28;20113;-75
2023/03/23 07:40:08;;;;;;;4.18;1.13;;;;;;;12.35;100.00;100234.56;5181206;28;20081;-75
2023/03/23 07:42:41;;;;;;;3.38;1.08;;;;;;;12.27;100.00;100235.34;5173749;28;20034;-74
2023/03/23 07:45:13;;;;;;;4.50;1.40;;;;;;;12.24;100.00;100237.47;5172351;28;20069;-75
2023/03/23 07:47:44;;;;;;;3.17;1.10;;;;;;;12.15;100.00;100233.97;5175068;28;20030;-75
2023/03/23 07:50:16;;;;;;;4.82;1.40;;;;;;;12.18;100.00;100231.03;5175166;28;20039;-75
2023/03/23 07:52:48;;;;;;;4.88;1.10;;;;;;;12.16;100.00;100246.97;5181379;28;20536;-75
2023/03/23 07:55:19;;;;;;;4.35;1.40;;;;;;;12.21;100.00;100251.72;5186241;28;20038;-75
2023/03/23 07:57:53;;;;;;;5.13;1.55;;;;;;;12.29;100.00;100259.66;5186335;28;20502;-75
2023/03/23 08:00:25;;;;;;;4.13;1.27;;;;;;;12.23;100.00;100257.63;5185294;28;20027;-75
2023/03/23 08:02:57;;;;;;;3.97;0.95;;;;;;;12.17;100.00;100266.16;5177387;28;20388;-75
2023/03/23 08:05:28;;;;;;;2.60;0.85;;;;;;;12.17;100.00;100266.97;5181978;28;20038;-74
2023/03/23 08:08:00;;;;;;;3.42;1.10;;;;;;;12.03;100.00;100266.72;5187142;28;20095;-75
2023/03/23 08:10:31;;;;;;;4.60;1.20;;;;;;;12.10;100.00;100280.88;5180574;28;20472;-75
2023/03/23 08:13:03;;;;;;;2.67;1.10;;;;;;;12.01;100.00;100292.28;5182158;28;20094;-74
2023/03/23 08:15:37;;;;;;;3.58;1.05;;;;;;;11.98;100.00;100285.56;5184992;28;20038;-75
2023/03/23 08:18:09;;;;;;;6.07;1.60;;;;;;;11.98;100.00;100292.59;5185146;28;20026;-75
2023/03/23 08:20:40;;;;;;;5.40;1.20;;;;;;;11.99;100.00;100289.81;5189889;28;20026;-75
2023/03/23 08:23:12;;;;;;;3.35;1.20;;;;;;;11.96;100.00;100284.03;5181743;28;20069;-75
2023/03/23 08:25:43;;;;;;;5.25;1.00;;;;;;;11.90;100.00;100280.25;5184881;28;20038;-75
2023/03/23 08:28:15;;;;;;;2.55;0.90;;;;;;;12.03;100.00;100298.22;5181598;28;20043;-75
2023/03/23 08:30:46;;;;;;;5.82;1.65;;;;;;;11.99;100.00;100289.81;5184239;28;20121;-75
2023/03/23 08:33:18;;;;;;;2.83;0.95;;;;;;;12.05;100.00;100277.91;5181998;28;20026;-75
2023/03/23 08:35:57;;;;;;;3.90;0.85;;;;;;;12.20;100.00;100281.59;5182275;28;20555;-75
2023/03/23 08:38:30;;;;;;;2.97;0.90;;;;;;;12.04;100.00;100282.28;5179058;28;20038;-75
2023/03/23 08:41:04;;;;;;;4.25;1.10;;;;;;;12.02;100.00;100283.44;5182125;28;20050;-75
2023/03/23 08:43:35;;;;;;;4.13;1.23;;;;;;;11.97;100.00;100280.44;5182211;28;20015;-75
2023/03/23 08:46:09;;;;;;;3.33;1.02;;;;;;;12.12;100.00;100295.50;5185698;28;20037;-74
2023/03/23 08:48:40;;;;;;;2.58;0.70;;;;;;;12.20;100.00;100292.13;5184592;28;20026;-75
2023/03/23 08:51:12;;;;;;;3.80;1.10;;;;;;;12.15;100.00;100297.81;5184063;28;20040;-75
2023/03/23 08:53:43;;;;;;;2.47;1.00;;;;;;;12.17;100.00;100295.88;5185961;28;20110;-75
2023/03/23 08:56:14;;;;;;;4.18;1.10;;;;;;;12.23;100.00;100288.34;5184645;28;20033;-75
2023/03/23 08:58:47;;;;;;;3.45;1.10;;;;;;;12.15;100.00;100286.47;5188944;28;21259;-75
2023/03/23 09:01:18;;;;;;;2.30;0.82;;;;;;;12.21;100.00;100300.81;5186781;28;20399;-75
2023/03/23 09:03:50;;;;;;;3.22;0.90;;;;;;;12.15;100.00;100299.59;5189067;28;20022;-75
2023/03/23 09:06:22;;;;;;;3.35;1.05;;;;;;;12.19;100.00;100308.81;5185233;28;20023;-75
2023/03/23 09:08:55;;;;;;;4.47;1.00;;;;;;;12.26;100.00;100286.22;5193393;28;20146;-75
2023/03/23 09:11:26;;;;;;;4.90;1.42;;;;;;;12.40;100.00;100279.59;5189167;28;20050;-75
2023/03/23 09:13:58;;;;;;;2.47;1.08;;;;;;;12.48;100.00;100279.63;5189358;28;20030;-75
2023/03/23 09:16:31;;;;;;;3.72;1.20;;;;;;;12.48;100.00;100292.75;5182467;28;20135;-75
2023/03/23 09:19:02;;;;;;;3.63;1.17;;;;;;;12.56;100.00;100305.13;5188697;28;20065;-75
2023/03/23 09:21:33;;;;;;;4.55;1.10;;;;;;;12.67;100.00;100299.59;5192868;28;20479;-75
2023/03/23 09:24:05;;;;;;;4.47;1.20;;;;;;;12.52;100.00;100294.09;5183029;28;20551;-75
2023/03/23 09:26:36;;;;;;;5.20;1.38;;;;;;;12.57;100.00;100296.25;5188873;28;20030;-75
2023/03/23 09:29:08;;;;;;;3.22;1.05;;;;;;;12.56;100.00;100297.25;5189257;28;20043;-75
2023/03/23 09:31:41;;;;;;;3.13;1.00;;;;;;;12.52;100.00;100280.13;5183440;28;20026;-75
2023/03/23 09:34:15;;;;;;;4.63;1.33;;;;;;;12.50;100.00;100282.94;5186518;28;20031;-75
2023/03/23 09:36:46;;;;;;;4.65;1.30;;;;;;;12.63;100.00;100293.00;5181919;28;20093;-75
2023/03/23 09:39:18;;;;;;;3.35;1.25;;;;;;;12.72;100.00;100312.25;5182432;28;20444;-75
2023/03/23 09:42:05;;;;;;;4.25;1.27;;;;;;;12.98;100.00;100305.16;5188040;28;20391;-75
2023/03/23 09:45:04;;;;;;;3.95;1.33;;;;;;;13.12;100.00;100303.72;5182277;28;20071;-75
2023/03/23 09:48:03;;;;;;;2.72;1.30;;;;;;;13.18;100.00;100305.69;5183425;28;20530;-75
2023/03/23 09:50:37;;;;;;;3.50;1.25;;;;;;;13.17;100.00;100303.25;5182550;28;20026;-75
2023/03/23 09:53:16;;;;;;;5.80;1.27;;;;;;;13.37;100.00;100296.72;5185795;28;20033;-75
2023/03/23 09:55:49;;;;;;;5.90;1.40;;;;;;;13.40;100.00;100288.50;5183572;28;20026;-75
2023/03/23 09:58:31;;;;;;;;;;;;;;;14.17;100.00;100301.38;5184855;28;20022;-75
2023/03/23 10:01:08;;;;;;;3.90;1.38;;;;;;;13.83;100.00;100307.66;5180889;28;19927;-75
2023/03/23 10:03:43;;;;;;;4.43;1.17;;;;;;;13.94;100.00;100304.69;5185637;28;20481;-75
2023/03/23 10:06:17;;;;;;;5.90;1.67;;;;;;;14.04;100.00;100307.97;5184135;28;20038;-75
2023/03/23 10:09:01;;;;;;;3.70;1.35;;;;;;;14.26;100.00;100305.66;5187615;28;20039;-75
2023/03/23 10:11:51;;;;;;;4.57;1.58;;;;;;;14.19;100.00;100304.66;5183899;28;20030;-75
2023/03/23 10:14:29;;;;;;;3.92;1.60;;;;;;;14.41;100.00;100321.59;5184539;28;20062;-76
2023/03/23 10:17:00;;;;;;;4.45;1.50;;;;;;;14.32;100.00;100326.91;5182432;28;20034;-76
2023/03/23 10:19:47;;;;;;;5.75;1.73;;;;;;;14.60;100.00;100314.16;5186406;28;20530;-76
2023/03/23 10:22:27;;;;;;;6.75;1.90;;;;;;;14.66;100.00;100323.22;5184208;28;20026;-76
2023/03/23 10:25:15;;;;;;;3.70;1.52;;;;;;;15.04;100.00;100328.69;5182957;28;20023;-76
2023/03/23 10:28:12;;;;;;;4.25;1.45;;;;;;;15.14;100.00;100331.09;5180946;28;20074;-76
2023/03/23 10:30:48;;;;;;;4.85;1.50;;;;;;;14.87;100.00;100343.75;5184121;28;20380;-76
2023/03/23 10:33:37;;;;;;;5.68;1.70;;;;;;;14.99;100.00;100334.47;5180178;28;20113;-76
2023/03/23 10:36:24;;;;;;;5.20;1.63;;;;;;;15.15;100.00;100332.75;5183687;28;20472;-75
2023/03/23 10:39:14;;;;;;;4.95;2.03;;;;;;;15.05;100.00;100344.34;5181328;28;20026;-75
2023/03/23 10:41:45;;;;;;;6.22;1.90;;;;;;;14.88;100.00;100328.75;5183693;28;20109;-76
2023/03/23 10:44:21;;;;;;;5.60;1.80;;;;;;;14.97;100.00;100327.72;5181975;28;20109;-76
2023/03/23 10:47:06;;;;;;;4.60;1.50;;;;;;;15.06;100.00;100335.44;5179749;28;20396;-76
2023/03/23 10:49:56;;;;;;;4.25;1.50;;;;;;;15.34;100.00;100327.03;5184939;28;20034;-76
2023/03/23 10:52:36;;;;;;;3.95;1.67;;;;;;;15.47;100.00;100321.19;5182100;28;20031;-76
2023/03/23 10:55:20;;;;;;;4.35;2.10;;;;;;;15.58;100.00;100315.53;5182091;28;20388;-76
2023/03/23 10:58:07;;;;;;;5.88;1.70;;;;;;;15.99;100.00;100331.09;5176882;28;20022;-76
2023/03/23 11:00:44;;;;;;;6.22;1.88;;;;;;;15.75;100.00;100314.41;5177767;28;20026;-76
2023/03/23 11:03:17;;;;;;;3.25;1.70;;;;;;;15.60;100.00;100318.78;5181680;28;20039;-76
2023/03/23 11:05:52;;;;;;;4.65;1.63;;;;;;;15.59;100.00;100330.34;5185942;28;20242;-76
2023/03/23 11:08:28;;;;;;;4.50;1.58;;;;;;;15.61;100.00;100309.88;5191190;28;20030;-76
2023/03/23 11:11:21;;;;;;;7.13;2.15;;;;;;;15.95;100.00;100327.16;5184325;28;20479;-76
2023/03/23 11:13:59;;;;;;;4.97;1.42;;;;;;;15.89;100.00;100309.38;5184287;28;20119;-76
2023/03/23 11:16:33;;;;;;;5.60;1.65;;;;;;;15.88;100.00;100316.47;5184984;28;20388;-76
2023/03/23 11:19:20;;;;;;;6.30;1.95;;;;;;;16.05;100.00;100320.63;5187146;28;20362;-75
2023/03/23 11:21:54;;;;;;;6.43;1.60;;;;;;;16.08;100.00;100330.03;5190440;28;20031;-75
2023/03/23 11:24:26;;;;;;;5.40;1.55;;;;;;;15.99;100.00;100333.75;5183270;28;20116;-75
2023/03/23 11:26:58;;;;;;;5.32;1.52;;;;;;;15.99;100.00;100349.59;5180622;28;20054;-76
2023/03/23 11:29:30;;;;;;;5.15;1.50;;;;;;;15.97;100.00;100335.72;5183101;28;20034;-75
2023/03/23 11:32:09;;;;;;;4.82;1.63;;;;;;;16.22;100.00;100342.44;5182260;28;20035;-75
2023/03/23 11:34:43;;;;;;;3.08;1.20;;;;;;;16.06;100.00;100342.56;5182424;28;20101;-75
2023/03/23 11:37:23;;;;;;;4.43;1.42;;;;;;;15.95;100.00;100350.94;5184335;28;20026;-75
2023/03/23 11:40:06;;;;;;;3.38;1.45;;;;;;;15.82;100.00;100349.69;5186168;28;20036;-75
2023/03/23 11:42:48;;;;;;;5.43;1.48;;;;;;;15.87;100.00;100335.94;5184022;28;20493;-75
2023/03/23 11:45:32;;;;;;;5.75;1.55;;;;;;;15.97;100.00;100341.81;5192732;28;20061;-75
2023/03/23 11:48:38;;;;;;;3.28;1.05;;;;;;;16.29;100.00;100346.03;5190463;28;20053;-75
2023/03/23 11:51:47;;;;;;;4.93;1.75;;;;;;;16.36;100.00;100350.56;5190378;28;20515;-75